createdAt,value
2023-04-09T00:02:23.228Z,78.69
2023-04-09T00:07:14.247Z,79.12
2023-04-09T00:12:14.414Z,80.80
2023-04-09T00:17:08.063Z,80.19
2023-04-09T00:22:01.960Z,81.76
2023-04-09T00:26:54.433Z,83.04
2023-04-09T00:31:51.891Z,82.07
2023-04-09T00:36:46.074Z,79.91
2023-04-09T00:41:45.353Z,81.66
2023-04-09T00:46:39.832Z,82.26
2023-04-09T00:51:38.528Z,80.98
2023-04-09T00:56:29.807Z,81.90
2023-04-09T01:01:23.392Z,81.70
2023-04-09T01:06:15.622Z,80.80
2023-04-09T01:11:13.572Z,79.94
2023-04-09T01:16:09.877Z,79.47
2023-04-09T01:21:05.915Z,79.45
2023-04-09T01:26:07.585Z,80.25
2023-04-09T01:31:31.670Z,76.17
2023-04-09T01:36:23.071Z,79.89
2023-04-09T01:41:20.478Z,80.80
2023-04-09T01:46:12.730Z,78.47
2023-04-09T01:51:08.511Z,79.91
2023-04-09T01:55:59.766Z,79.02
2023-04-09T02:00:58.518Z,80.22
2023-04-09T02:05:56.568Z,79.77
2023-04-09T02:10:54.266Z,79.11
2023-04-09T02:15:50.590Z,80.61
2023-04-09T02:20:43.846Z,81.20
2023-04-09T02:25:35.528Z,84.31
2023-04-09T02:30:28.512Z,80.46
2023-04-09T02:35:19.669Z,79.94
2023-04-09T02:40:11.047Z,81.42
2023-04-09T02:45:03.205Z,78.56
2023-04-09T02:49:58.634Z,78.56
2023-04-09T02:54:51.212Z,79.13
2023-04-09T02:59:47.337Z,79.46
2023-04-09T03:04:39.063Z,79.72
2023-04-09T03:09:34.666Z,79.98
2023-04-09T03:14:25.628Z,79.96
2023-04-09T03:19:17.583Z,79.47
2023-04-09T03:24:11.879Z,80.73
2023-04-09T03:29:06.114Z,79.97
2023-04-09T03:33:58.658Z,81.31
2023-04-09T03:38:58.042Z,82.06
2023-04-09T03:43:54.170Z,81.21
2023-04-09T03:48:54.317Z,82.30
2023-04-09T03:53:48.304Z,82.61
2023-04-09T03:58:39.907Z,81.35
2023-04-09T04:03:36.419Z,80.05
2023-04-09T04:08:51.248Z,80.44
2023-04-09T04:13:48.179Z,79.50
2023-04-09T04:18:38.933Z,80.70
2023-04-09T04:23:29.418Z,81.64
2023-04-09T04:28:33.359Z,81.63
2023-04-09T04:33:31.461Z,80.41
2023-04-09T04:38:28.020Z,79.52
2023-04-09T04:43:30.204Z,80.33
2023-04-09T04:48:26.113Z,79.87
2023-04-09T04:53:19.910Z,79.87
2023-04-09T04:58:15.845Z,80.26
2023-04-09T05:03:20.112Z,80.12
2023-04-09T05:08:25.575Z,81.72
2023-04-09T05:13:19.334Z,77.84
2023-04-09T05:18:10.541Z,80.28
2023-04-09T05:23:03.701Z,80.52
2023-04-09T05:28:12.896Z,81.20
2023-04-09T05:33:16.164Z,79.31
2023-04-09T05:38:17.537Z,80.60
2023-04-09T05:43:17.238Z,80.20
2023-04-09T05:48:11.829Z,81.07
2023-04-09T05:53:04.408Z,81.26
2023-04-09T05:58:03.888Z,81.13
2023-04-09T06:02:57.610Z,82.16
2023-04-09T06:07:51.649Z,81.64
2023-04-09T06:12:42.779Z,80.53
2023-04-09T06:17:35.966Z,82.05
2023-04-09T06:22:33.896Z,81.02
2023-04-09T06:27:27.341Z,80.43
2023-04-09T06:32:17.800Z,81.18
2023-04-09T06:42:27.212Z,80.85
2023-04-09T06:47:45.888Z,82.10
2023-04-09T06:52:40.237Z,81.81
2023-04-09T06:57:35.514Z,81.68
2023-04-09T07:02:30.296Z,80.21
2023-04-09T07:07:25.855Z,79.94
2023-04-09T07:12:18.961Z,78.10
2023-04-09T07:17:13.175Z,78.00
2023-04-09T07:22:04.093Z,78.95
2023-04-09T07:26:54.794Z,78.86
2023-04-09T07:32:04.110Z,80.75
2023-04-09T07:36:58.918Z,80.52
2023-04-09T07:41:59.576Z,79.80
2023-04-09T07:46:54.077Z,78.88
2023-04-09T07:51:49.468Z,76.81
2023-04-09T07:56:45.945Z,75.72
2023-04-09T08:01:46.422Z,76.42
2023-04-09T08:06:38.349Z,74.98
2023-04-09T08:11:31.320Z,75.39
2023-04-09T08:16:24.739Z,78.30
2023-04-09T08:21:14.565Z,76.83
2023-04-09T08:26:04.140Z,77.16
2023-04-09T08:30:55.675Z,77.27
2023-04-09T08:35:51.655Z,76.20
2023-04-09T08:40:44.410Z,75.63
2023-04-09T08:45:34.895Z,74.48
2023-04-09T08:50:25.732Z,75.26
2023-04-09T08:55:21.607Z,74.94
2023-04-09T09:00:15.366Z,76.68
2023-04-09T09:05:05.893Z,76.90
2023-04-09T09:09:59.608Z,74.90
2023-04-09T09:14:52.169Z,75.12
2023-04-09T09:19:47.243Z,74.23
2023-04-09T09:24:52.956Z,73.38
2023-04-09T09:29:46.885Z,72.62
2023-04-09T09:34:44.483Z,71.10
2023-04-09T09:39:50.589Z,69.66
2023-04-09T09:44:49.677Z,69.47
2023-04-09T09:49:44.918Z,69.42
2023-04-09T09:54:46.398Z,70.00
2023-04-09T09:59:42.099Z,69.35
2023-04-09T10:04:39.030Z,67.97
2023-04-09T10:09:34.698Z,64.16
2023-04-09T10:14:26.694Z,61.56
2023-04-09T10:19:17.689Z,61.88
2023-04-09T10:24:12.973Z,57.74
2023-04-09T10:29:17.473Z,54.21
2023-04-09T10:34:12.941Z,52.84
2023-04-09T10:39:16.595Z,52.29
2023-04-09T10:44:26.732Z,51.85
2023-04-09T10:49:22.783Z,53.12
2023-04-09T10:54:44.399Z,51.36
2023-04-09T10:59:41.038Z,53.08
2023-04-09T11:04:46.222Z,50.59
2023-04-09T11:09:39.591Z,50.56
2023-04-09T11:14:37.088Z,49.94
2023-04-09T11:19:33.430Z,51.48
2023-04-09T11:24:23.625Z,51.76
2023-04-09T11:29:14.875Z,51.58
2023-04-09T11:34:05.259Z,49.94
2023-04-09T11:39:00.401Z,48.70
2023-04-09T11:43:55.381Z,48.45
2023-04-09T11:48:51.530Z,47.96
2023-04-09T11:53:45.323Z,47.88
2023-04-09T11:58:40.902Z,47.80
2023-04-09T12:03:34.940Z,49.60
2023-04-09T12:08:27.828Z,49.44
2023-04-09T12:13:19.289Z,48.54
2023-04-09T12:18:17.747Z,49.16
2023-04-09T12:23:15.263Z,48.20
2023-04-09T12:28:11.752Z,47.07
2023-04-09T12:33:10.282Z,48.22
2023-04-09T12:38:10.297Z,46.78
2023-04-09T12:43:03.947Z,45.74
2023-04-09T12:47:56.016Z,46.71
2023-04-09T12:52:50.707Z,44.53
2023-04-09T12:57:51.432Z,43.82
2023-04-09T13:02:47.239Z,44.30
2023-04-09T13:07:43.815Z,44.81
2023-04-09T13:12:38.268Z,45.13
2023-04-09T13:17:32.526Z,44.90
2023-04-09T13:22:24.600Z,45.96
2023-04-09T13:27:20.508Z,45.78
2023-04-09T13:32:14.527Z,45.18
2023-04-09T13:37:13.809Z,44.28
2023-04-09T13:42:13.679Z,44.18
2023-04-09T13:47:05.357Z,42.94
2023-04-09T13:51:57.427Z,42.62
2023-04-09T13:56:51.651Z,41.82
2023-04-09T14:01:47.948Z,42.00
2023-04-09T14:06:45.292Z,42.18
2023-04-09T14:11:39.537Z,41.08
2023-04-09T14:16:34.962Z,40.69
2023-04-09T14:21:27.318Z,40.39
2023-04-09T14:26:27.455Z,40.32
2023-04-09T14:31:21.731Z,39.58
2023-04-09T14:36:17.910Z,39.17
2023-04-09T14:41:09.578Z,39.57
2023-04-09T14:46:00.985Z,39.24
2023-04-09T14:51:03.362Z,38.93
2023-04-09T14:56:04.179Z,37.90
2023-04-09T15:00:59.019Z,38.51
2023-04-09T15:06:01.828Z,38.42
2023-04-09T15:16:26.237Z,39.42
2023-04-09T15:21:22.839Z,38.22
2023-04-09T15:26:18.578Z,37.71
2023-04-09T15:31:15.583Z,38.29
2023-04-09T15:36:07.926Z,38.53
2023-04-09T15:41:11.197Z,38.42
2023-04-09T15:46:12.254Z,38.38
2023-04-09T15:51:13.435Z,38.35
2023-04-09T15:56:14.334Z,37.71
2023-04-09T16:01:15.968Z,38.93
2023-04-09T16:06:20.027Z,39.02
2023-04-09T16:11:36.559Z,40.19
2023-04-09T16:16:33.754Z,40.56
2023-04-09T16:21:40.064Z,40.12
2023-04-09T16:32:14.122Z,40.33
2023-04-09T16:37:10.783Z,39.77
2023-04-09T16:42:05.156Z,38.96
2023-04-09T16:47:19.312Z,39.53
2023-04-09T16:52:11.464Z,37.99
2023-04-09T16:57:09.667Z,38.89
2023-04-09T17:02:07.515Z,39.43
2023-04-09T17:07:03.939Z,39.62
2023-04-09T17:11:55.801Z,40.60
2023-04-09T17:16:47.609Z,41.62
2023-04-09T17:21:44.506Z,43.03
2023-04-09T17:26:36.635Z,42.16
2023-04-09T17:31:30.350Z,43.46
2023-04-09T17:36:25.612Z,44.02
2023-04-09T17:41:21.960Z,44.94
2023-04-09T17:46:14.217Z,45.94
2023-04-09T17:51:19.252Z,44.21
2023-04-09T17:56:11.563Z,44.39
2023-04-09T18:01:12.474Z,45.17
2023-04-09T18:06:05.174Z,45.90
2023-04-09T18:11:11.525Z,46.31
2023-04-09T18:16:11.287Z,46.57
2023-04-09T18:21:02.936Z,46.92
2023-04-09T18:25:56.821Z,46.94
2023-04-09T18:30:47.358Z,47.25
2023-04-09T18:35:45.024Z,47.09
2023-04-09T18:40:49.660Z,48.21
2023-04-09T18:45:45.915Z,48.04
2023-04-09T18:50:40.140Z,48.12
2023-04-09T18:55:46.908Z,48.70
2023-04-09T19:00:41.176Z,48.71
2023-04-09T19:05:35.189Z,48.95
2023-04-09T19:10:26.418Z,49.68
2023-04-09T19:15:23.593Z,49.69
2023-04-09T19:20:25.176Z,49.94
2023-04-09T19:25:18.904Z,50.06
2023-04-09T19:30:14.972Z,50.40
2023-04-09T19:35:15.338Z,50.97
2023-04-09T19:40:06.734Z,51.29
2023-04-09T19:45:03.134Z,51.09
2023-04-09T19:50:10.479Z,51.51
2023-04-09T19:55:10.471Z,51.45
2023-04-09T20:00:02.902Z,51.30
2023-04-09T20:05:03.582Z,51.92
2023-04-09T20:09:58.908Z,51.99
2023-04-09T20:14:56.370Z,52.71
2023-04-09T20:19:50.047Z,52.25
2023-04-09T20:24:43.012Z,52.43
2023-04-09T20:29:35.896Z,52.18
2023-04-09T20:34:34.415Z,52.38
2023-04-09T20:39:29.299Z,56.69
2023-04-09T20:44:21.455Z,56.48
2023-04-09T20:49:19.962Z,56.32
2023-04-09T20:54:15.494Z,57.27
2023-04-09T20:59:07.130Z,57.02
2023-04-09T21:03:59.875Z,57.67
2023-04-09T21:08:59.708Z,56.84
2023-04-09T21:13:55.871Z,57.68
2023-04-09T21:18:47.373Z,57.43
2023-04-09T21:23:42.127Z,57.79
2023-04-09T21:28:46.210Z,57.45
2023-04-09T21:33:39.991Z,58.79
2023-04-09T21:38:31.246Z,58.27
2023-04-09T21:43:22.508Z,58.74
2023-04-09T21:48:13.981Z,58.95
2023-04-09T21:53:11.457Z,60.30
2023-04-09T21:58:03.767Z,60.21
2023-04-09T22:03:01.428Z,59.49
2023-04-09T22:07:52.593Z,60.14
2023-04-09T22:12:46.723Z,59.84
2023-04-09T22:17:39.327Z,59.38
2023-04-09T22:22:34.073Z,59.74
2023-04-09T22:27:29.592Z,60.65
2023-04-09T22:32:27.104Z,60.85
2023-04-09T22:37:18.342Z,61.54
2023-04-09T22:42:20.658Z,60.80
2023-04-09T22:47:13.608Z,61.07
2023-04-09T22:52:09.132Z,61.20
2023-04-09T22:57:01.003Z,61.52
2023-04-09T23:01:57.031Z,62.27
2023-04-09T23:06:51.938Z,62.43
2023-04-09T23:11:52.225Z,62.81
2023-04-09T23:16:43.147Z,63.18
2023-04-09T23:21:39.409Z,64.38
2023-04-09T23:26:31.249Z,63.78
2023-04-09T23:31:27.808Z,64.11
2023-04-09T23:36:24.755Z,62.89
2023-04-09T23:41:19.205Z,62.85
2023-04-09T23:46:13.494Z,64.34
2023-04-09T23:51:15.524Z,64.53
2023-04-09T23:56:09.654Z,65.25
